Time;durP1;ratioP1;P1;durP2;ratioP2;P2;SDS_P1;SDS_P2;PMS_P1;PMS_P2;Temp;Humidity;BMP_temperature;BMP_pressure;BME280_temperature;BME280_humidity;BME280_pressure;Samples;Min_cycle;Max_cycle;Signal;HPM_P1;HPM_P2
2021/12/20 00:02:24;;;;;;;28.13;9.73;;;;;;;5.32;100.00;98580.09;5070396;28;20048;-54
2021/12/20 00:04:52;;;;;;;28.83;9.88;;;;;;;5.27;100.00;98574.13;5075717;28;20028;-55
2021/12/20 00:07:18;;;;;;;24.02;9.60;;;;;;;5.38;100.00;98577.44;5074796;28;20105;-54
2021/12/20 00:09:44;;;;;;;21.98;8.55;;;;;;;5.17;100.00;98573.38;5073782;28;20024;-54
2021/12/20 00:12:09;;;;;;;22.98;8.50;;;;;;;5.29;100.00;98562.03;5073628;28;20045;-54
2021/12/20 00:14:34;;;;;;;20.17;7.07;;;;;;;5.47;100.00;98560.97;5073120;28;20405;-54
2021/12/20 00:17:00;;;;;;;21.83;7.85;;;;;;;5.57;100.00;98558.25;5070259;28;20028;-55
2021/12/20 00:19:26;;;;;;;21.15;8.60;;;;;;;5.63;100.00;98556.47;5072897;28;20683;-54
2021/12/20 00:21:51;;;;;;;18.73;7.10;;;;;;;5.49;100.00;98559.22;5078182;28;20513;-56
2021/12/20 00:24:18;;;;;;;23.15;8.30;;;;;;;5.17;100.00;98563.88;5078815;28;20043;-54
2021/12/20 00:26:44;;;;;;;21.17;8.68;;;;;;;5.34;100.00;98560.25;5071936;28;20616;-56
2021/12/20 00:29:09;;;;;;;18.60;8.05;;;;;;;5.57;100.00;98567.78;5075052;28;20107;-54
2021/12/20 00:31:35;;;;;;;21.75;8.10;;;;;;;5.35;100.00;98567.16;5073132;28;20028;-56
2021/12/20 00:34:00;;;;;;;24.65;8.10;;;;;;;5.37;100.00;98566.25;5073280;28;20023;-57
2021/12/20 00:36:27;;;;;;;19.00;7.53;;;;;;;5.52;100.00;98570.41;5074343;28;20042;-55
2021/12/20 00:41:37;;;;;;;19.70;7.55;;;;;;;5.24;100.00;98558.63;5073589;28;20063;-55
2021/12/20 00:44:02;;;;;;;20.38;8.43;;;;;;;5.35;100.00;98569.75;5075722;28;20047;-55
2021/12/20 00:46:28;;;;;;;20.00;8.10;;;;;;;5.54;100.00;98560.03;5069716;28;20063;-56
2021/12/20 00:48:54;;;;;;;19.75;7.97;;;;;;;5.01;100.00;98557.97;5077894;28;20095;-57
2021/12/20 00:51:19;;;;;;;19.58;8.05;;;;;;;4.70;100.00;98570.34;5075152;28;20052;-55
2021/12/20 00:53:44;;;;;;;22.80;8.32;;;;;;;5.08;100.00;98563.97;5086582;28;20036;-55
2021/12/20 00:56:10;;;;;;;21.00;7.43;;;;;;;4.98;100.00;98567.50;5072416;28;20406;-55
2021/12/20 00:58:35;;;;;;;23.15;8.00;;;;;;;5.22;100.00;98566.44;5073582;28;20118;-56
2021/12/20 01:01:02;;;;;;;18.08;5.90;;;;;;;5.24;100.00;98556.91;5075359;28;20522;-55
2021/12/20 01:03:30;;;;;;;20.05;7.25;;;;;;;5.07;100.00;98562.25;5082236;28;20405;-54
2021/12/20 01:05:56;;;;;;;19.90;7.47;;;;;;;4.95;100.00;98557.22;5077369;28;20036;-54
2021/12/20 01:08:23;;;;;;;18.20;7.35;;;;;;;5.36;100.00;98568.84;5079798;28;20038;-54
2021/12/20 01:10:52;;;;;;;16.10;6.72;;;;;;;5.38;100.00;98574.88;5082792;28;20033;-54
2021/12/20 01:13:21;;;;;;;18.15;6.88;;;;;;;5.12;100.00;98570.81;5080260;28;20616;-54
2021/12/20 01:15:50;;;;;;;13.95;5.70;;;;;;;5.45;100.00;98568.75;5077226;28;20031;-55
2021/12/20 01:18:16;;;;;;;17.02;7.30;;;;;;;5.55;100.00;98574.66;5082740;28;20029;-54
2021/12/20 01:20:42;;;;;;;15.40;6.38;;;;;;;5.75;100.00;98569.25;5090599;27;20040;-55
2021/12/20 01:23:08;;;;;;;20.85;6.80;;;;;;;5.58;100.00;98570.31;5077986;28;20212;-56
2021/12/20 01:25:35;;;;;;;9.15;3.90;;;;;;;6.81;100.00;98566.91;5079888;28;20036;-56
2021/12/20 01:28:01;;;;;;;16.08;6.68;;;;;;;5.70;100.00;98574.50;5076852;28;20055;-55
2021/12/20 01:30:27;;;;;;;13.93;6.05;;;;;;;6.28;100.00;98572.03;5078077;28;20124;-55
2021/12/20 01:32:53;;;;;;;15.32;5.95;;;;;;;5.81;100.00;98576.97;5077139;28;20035;-54
2021/12/20 01:35:22;;;;;;;17.90;6.63;;;;;;;5.72;100.00;98582.25;5069566;28;20085;-56
2021/12/20 01:37:48;;;;;;;13.93;6.30;;;;;;;6.06;100.00;98569.75;5080471;28;20040;-54
2021/12/20 01:40:17;;;;;;;16.13;6.03;;;;;;;6.51;100.00;98579.47;5074685;28;20027;-56
2021/12/20 01:42:43;;;;;;;14.48;5.30;;;;;;;6.03;100.00;98571.50;5071838;28;20111;-55
2021/12/20 01:45:17;;;;;;;9.77;4.38;;;;;;;6.94;100.00;98571.00;5071030;28;20047;-55
2021/12/20 01:47:47;;;;;;;16.48;6.93;;;;;;;5.64;100.00;98574.56;5080240;28;20024;-55
2021/12/20 01:50:40;;;;;;;15.63;6.43;;;;;;;5.72;100.00;98587.44;5076380;28;20024;-56
2021/12/20 01:52:59;;;;;;;16.70;6.90;;;;;;;5.25;100.00;98581.03;5075773;28;20046;-56
2021/12/20 01:55:24;;;;;;;15.40;6.32;;;;;;;5.52;100.00;98585.06;5079382;28;20035;-54
2021/12/20 01:57:50;;;;;;;20.63;6.57;;;;;;;5.66;100.00;98582.31;5076001;28;20059;-56
2021/12/20 02:00:24;;;;;;;16.23;6.18;;;;;;;5.67;100.00;98579.72;5074002;28;20045;-56
2021/12/20 02:02:58;;;;;;;18.05;7.10;;;;;;;5.52;100.00;98580.75;5078962;28;20031;-56
2021/12/20 02:05:34;;;;;;;17.10;6.80;;;;;;;5.57;100.00;98583.28;5076445;28;20115;-55
2021/12/20 02:08:03;;;;;;;14.68;6.43;;;;;;;5.25;100.00;98581.03;5075893;28;20028;-54
2021/12/20 02:10:33;;;;;;;15.63;5.70;;;;;;;5.45;100.00;98584.28;5079391;28;20048;-55
2021/12/20 02:13:00;;;;;;;15.30;6.30;;;;;;;5.35;100.00;98577.50;5075224;28;20024;-56
2021/12/20 02:15:25;;;;;;;15.15;6.43;;;;;;;5.42;100.00;98573.94;5077154;27;20481;-55
2021/12/20 02:17:51;;;;;;;13.85;6.32;;;;;;;5.21;100.00;98575.03;5076266;28;20035;-56
2021/12/20 02:20:25;;;;;;;14.80;6.15;;;;;;;5.28;100.00;98581.03;5072586;28;20103;-56
2021/12/20 02:22:53;;;;;;;16.10;7.00;;;;;;;5.24;100.00;98576.72;5076098;28;20058;-54
2021/12/20 02:25:19;;;;;;;15.32;6.28;;;;;;;5.21;100.00;98583.66;5078287;28;20466;-54
2021/12/20 02:27:45;;;;;;;17.00;6.72;;;;;;;5.39;100.00;98569.66;5077083;28;20025;-55
2021/12/20 02:30:25;;;;;;;14.23;5.93;;;;;;;5.60;100.00;98567.72;5075925;28;20020;-54
2021/12/20 02:38:21;;;;;;;17.23;6.55;;;;;;;5.51;100.00;98573.84;5077150;28;20533;-54
2021/12/20 02:40:47;;;;;;;15.45;6.03;;;;;;;5.47;100.00;98571.31;5077200;28;20510;-57
2021/12/20 02:43:17;;;;;;;16.48;5.93;;;;;;;5.31;100.00;98570.63;5083398;28;20024;-56
2021/12/20 02:45:43;;;;;;;13.68;5.90;;;;;;;5.28;100.00;98560.34;5079370;28;20046;-56
2021/12/20 02:48:09;;;;;;;15.63;5.85;;;;;;;5.56;100.00;98561.72;5076413;28;20082;-54
2021/12/20 02:50:34;;;;;;;12.45;5.57;;;;;;;5.24;100.00;98558.63;5071327;28;20025;-55
2021/12/20 02:53:00;;;;;;;14.88;6.57;;;;;;;5.40;100.00;98560.19;5080231;28;20076;-54
2021/12/20 02:55:25;;;;;;;14.45;6.22;;;;;;;5.30;100.00;98564.59;5075810;28;20754;-54
2021/12/20 02:57:51;;;;;;;15.77;6.25;;;;;;;5.47;100.00;98556.66;5074271;28;20093;-55
2021/12/20 03:00:17;;;;;;;15.80;5.70;;;;;;;5.39;100.00;98553.31;5079397;28;20469;-56
2021/12/20 03:02:42;;;;;;;14.60;5.60;;;;;;;5.65;100.00;98559.91;5078587;28;20676;-58
2021/12/20 03:05:09;;;;;;;11.50;5.32;;;;;;;5.72;100.00;98561.53;5077041;28;20093;-55
2021/12/20 03:07:44;;;;;;;12.90;5.80;;;;;;;5.16;100.00;98556.97;5074746;28;20032;-55
2021/12/20 03:10:09;;;;;;;16.55;5.68;;;;;;;5.63;100.00;98566.84;5075179;28;20062;-55
2021/12/20 03:12:35;;;;;;;14.55;5.97;;;;;;;5.50;100.00;98577.31;5077257;28;20055;-56
2021/12/20 03:15:08;;;;;;;11.95;5.63;;;;;;;5.30;100.00;98580.13;5078304;28;20078;-55
2021/12/20 03:17:34;;;;;;;11.63;5.25;;;;;;;5.32;100.00;98582.69;5074164;28;20063;-55
2021/12/20 03:19:59;;;;;;;13.27;4.97;;;;;;;5.38;100.00;98572.28;5077811;28;20115;-56
2021/12/20 03:22:24;;;;;;;10.27;4.30;;;;;;;5.94;100.00;98578.50;5074199;28;20039;-56
2021/12/20 03:24:50;;;;;;;12.32;5.20;;;;;;;5.98;100.00;98569.84;5073534;28;20080;-55
2021/12/20 03:27:15;;;;;;;11.55;5.15;;;;;;;5.90;100.00;98582.03;5071147;28;20573;-55
2021/12/20 03:29:41;;;;;;;12.35;5.20;;;;;;;5.76;100.00;98583.91;5070717;28;20024;-55
2021/12/20 03:32:06;;;;;;;12.63;5.03;;;;;;;5.63;100.00;98592.72;5071352;28;20044;-56
2021/12/20 03:34:32;;;;;;;11.68;4.82;;;;;;;5.78;100.00;98584.75;5073268;28;20103;-55
2021/12/20 03:36:58;;;;;;;8.88;3.90;;;;;;;6.73;100.00;98585.19;5077188;28;20114;-58
2021/12/20 03:39:23;;;;;;;9.68;4.07;;;;;;;6.61;100.00;98577.59;5076472;28;20036;-53
2021/12/20 03:41:49;;;;;;;11.60;4.95;;;;;;;6.04;100.00;98575.81;5058632;28;20512;-55
2021/12/20 03:44:14;;;;;;;11.98;5.35;;;;;;;5.87;100.00;98584.63;5075824;28;20024;-54
2021/12/20 03:46:40;;;;;;;11.43;5.05;;;;;;;6.24;100.00;98591.09;5073751;28;20032;-56
2021/12/20 03:49:06;;;;;;;17.60;4.97;;;;;;;5.34;100.00;98596.47;5073746;28;20024;-53
2021/12/20 03:51:32;;;;;;;9.32;4.40;;;;;;;5.91;100.00;98590.63;5076325;28;20072;-55
2021/12/20 03:53:58;;;;;;;12.45;4.93;;;;;;;5.51;100.00;98588.53;5076036;28;20055;-55
2021/12/20 03:56:23;;;;;;;12.55;4.70;;;;;;;5.21;100.00;98603.50;5080532;28;20563;-54
2021/12/20 03:58:48;;;;;;;12.15;5.40;;;;;;;5.38;100.00;98603.31;5073734;28;20035;-55
2021/12/20 04:01:14;;;;;;;9.48;4.13;;;;;;;5.75;100.00;98608.97;5072208;28;20137;-56
2021/12/20 04:03:40;;;;;;;11.00;4.53;;;;;;;6.13;100.00;98609.38;5073419;28;20016;-54
2021/12/20 04:06:08;;;;;;;8.95;3.92;;;;;;;6.08;100.00;98616.34;5075864;28;20665;-57
2021/12/20 04:08:34;;;;;;;11.13;5.10;;;;;;;5.58;100.00;98605.69;5071319;28;20063;-55
2021/12/20 04:11:00;;;;;;;14.02;5.22;;;;;;;5.59;100.00;98597.06;5071119;28;20093;-54
2021/12/20 04:13:27;;;;;;;10.02;4.25;;;;;;;5.76;100.00;98594.28;5073041;28;20028;-54
2021/12/20 04:15:53;;;;;;;11.10;4.70;;;;;;;5.64;100.00;98604.75;5075766;28;20049;-54
2021/12/20 04:18:19;;;;;;;12.23;4.97;;;;;;;6.41;100.00;98603.81;5080075;28;20027;-54
2021/12/20 04:20:45;;;;;;;12.65;4.70;;;;;;;5.62;100.00;98602.19;5070692;28;20605;-54
2021/12/20 04:23:10;;;;;;;12.23;4.80;;;;;;;5.86;100.00;98600.19;5073703;28;20581;-54
2021/12/20 04:25:36;;;;;;;12.63;4.70;;;;;;;5.66;100.00;98603.00;5071135;28;20033;-54
2021/12/20 04:28:01;;;;;;;10.15;4.32;;;;;;;5.43;100.00;98604.13;5074838;28;20336;-56
2021/12/20 04:30:29;;;;;;;14.05;4.40;;;;;;;5.99;100.00;98606.94;5078392;28;20251;-54
2021/12/20 04:32:55;;;;;;;11.60;4.63;;;;;;;5.21;100.00;98603.50;5074326;28;20175;-55
2021/12/20 04:35:20;;;;;;;9.30;3.75;;;;;;;5.72;100.00;98606.41;5072384;28;20130;-55
2021/12/20 04:37:48;;;;;;;10.02;4.45;;;;;;;5.94;100.00;98614.75;5076654;28;20107;-54
2021/12/20 04:40:17;;;;;;;10.52;4.82;;;;;;;5.22;100.00;98611.25;5079195;28;20028;-54
2021/12/20 04:42:43;;;;;;;10.88;4.75;;;;;;;5.36;100.00;98615.41;5077875;28;20024;-53
2021/12/20 04:45:08;;;;;;;12.23;4.53;;;;;;;4.97;100.00;98617.50;5077749;28;20044;-54
2021/12/20 04:47:34;;;;;;;11.23;4.35;;;;;;;5.55;100.00;98611.78;5076447;28;20031;-54
2021/12/20 04:49:59;;;;;;;13.38;4.50;;;;;;;5.03;100.00;98613.13;5077656;28;20024;-55
2021/12/20 04:52:26;;;;;;;17.08;5.60;;;;;;;4.83;100.00;98610.72;5078279;28;20040;-53
2021/12/20 04:54:51;;;;;;;10.95;5.03;;;;;;;4.78;100.00;98622.84;5076494;28;20115;-55
2021/12/20 04:57:17;;;;;;;12.45;5.28;;;;;;;4.93;100.00;98616.69;5079362;28;20119;-54
2021/12/20 04:59:43;;;;;;;10.88;4.65;;;;;;;4.82;100.00;98616.75;5082757;28;20067;-56
2021/12/20 05:02:08;;;;;;;9.38;4.38;;;;;;;4.63;100.00;98623.81;5081414;28;20064;-55
2021/12/20 05:04:33;;;;;;;9.43;3.85;;;;;;;5.09;100.00;98619.13;5077535;28;20119;-54
2021/12/20 05:06:59;;;;;;;15.13;5.43;;;;;;;4.80;100.00;98617.66;5082480;28;20734;-55
2021/12/20 05:09:28;;;;;;;9.95;4.72;;;;;;;4.50;100.00;98621.31;5081269;28;20589;-55
2021/12/20 05:12:01;;;;;;;14.70;5.32;;;;;;;4.53;100.00;98621.28;5080287;28;20149;-55
2021/12/20 05:14:27;;;;;;;14.25;5.57;;;;;;;4.11;100.00;98618.09;5077690;28;20360;-54
2021/12/20 05:16:52;;;;;;;18.10;5.65;;;;;;;4.09;100.00;98625.84;5076298;28;20036;-54
2021/12/20 05:19:18;;;;;;;17.77;5.68;;;;;;;4.10;100.00;98626.69;5077264;28;20031;-54
2021/12/20 05:21:43;;;;;;;12.90;5.57;;;;;;;3.79;100.00;98627.69;5078830;28;20032;-53
2021/12/20 05:24:08;;;;;;;12.90;4.22;;;;;;;3.65;100.00;98635.47;5079293;28;20766;-54
2021/12/20 05:26:34;;;;;;;14.75;5.47;;;;;;;3.54;100.00;98632.06;5078303;28;20130;-54
2021/12/20 05:29:00;;;;;;;11.15;4.85;;;;;;;3.56;100.00;98640.66;5076673;28;20042;-54
2021/12/20 05:31:26;;;;;;;14.98;5.57;;;;;;;3.45;100.00;98644.97;5076753;28;20428;-56
2021/12/20 05:33:51;;;;;;;14.05;5.25;;;;;;;3.34;100.00;98645.00;5091314;27;20032;-54
2021/12/20 05:36:16;;;;;;;12.75;4.90;;;;;;;3.27;100.00;98639.00;5074181;28;20527;-54
2021/12/20 05:38:42;;;;;;;12.32;4.82;;;;;;;3.25;100.00;98650.16;5083383;28;20103;-54
2021/12/20 05:41:07;;;;;;;13.40;4.82;;;;;;;3.02;100.00;98657.94;5076182;28;20161;-54
2021/12/20 05:43:32;;;;;;;15.40;3.95;;;;;;;3.17;100.00;98652.75;5080563;28;20020;-57
2021/12/20 05:45:58;;;;;;;13.38;4.68;;;;;;;3.07;100.00;98653.66;5094649;27;20047;-54
2021/12/20 05:48:23;;;;;;;14.07;4.85;;;;;;;3.17;100.00;98660.50;5075666;28;20111;-57
2021/12/20 05:50:48;;;;;;;12.68;4.20;;;;;;;3.06;100.00;98672.53;5071746;28;20039;-56
2021/12/20 05:53:14;;;;;;;15.88;4.88;;;;;;;2.78;100.00;98669.09;5077172;28;20020;-55
2021/12/20 05:55:39;;;;;;;11.98;4.32;;;;;;;2.81;100.00;98677.69;5077953;28;20649;-55
2021/12/20 05:58:04;;;;;;;16.30;4.60;;;;;;;2.70;100.00;98681.94;5077258;28;20213;-55
2021/12/20 06:00:30;;;;;;;14.68;4.50;;;;;;;2.47;100.00;98687.91;5078468;28;20529;-56
2021/12/20 06:02:55;;;;;;;19.95;7.20;;;;;;;2.50;100.00;98685.38;5089872;27;20189;-55
2021/12/20 06:05:21;;;;;;;16.98;6.07;;;;;;;2.43;100.00;98688.78;5079848;28;20041;-55
2021/12/20 06:07:47;;;;;;;22.20;4.95;;;;;;;2.38;100.00;98682.75;5098436;27;20029;-55
2021/12/20 06:10:15;;;;;;;17.60;5.05;;;;;;;2.23;100.00;98693.00;5083859;28;20030;-55
2021/12/20 06:12:41;;;;;;;21.00;4.82;;;;;;;2.05;100.00;98684.34;5079011;28;20021;-54
2021/12/20 06:15:07;;;;;;;15.57;4.65;;;;;;;2.04;100.00;98690.38;5076250;28;20021;-55
2021/12/20 06:17:32;;;;;;;16.27;4.75;;;;;;;1.96;100.00;98697.16;5075988;28;20025;-55
2021/12/20 06:19:58;;;;;;;17.83;4.22;;;;;;;2.01;100.00;98703.19;5077001;28;20019;-56
2021/12/20 06:22:23;;;;;;;14.43;5.47;;;;;;;2.06;100.00;98706.66;5095964;27;20050;-57
2021/12/20 06:24:48;;;;;;;17.80;5.40;;;;;;;1.97;100.00;98698.91;5083066;28;20059;-55
2021/12/20 06:27:14;;;;;;;13.95;5.40;;;;;;;2.12;100.00;98704.09;5079350;28;20039;-54
2021/12/20 06:29:39;;;;;;;12.35;4.97;;;;;;;2.03;100.00;98703.22;5080866;28;20707;-55
2021/12/20 06:32:05;;;;;;;21.65;5.85;;;;;;;1.10;100.00;98712.94;5079973;28;20063;-55
2021/12/20 06:34:30;;;;;;;18.65;5.72;;;;;;;0.52;100.00;98714.94;5079993;28;20111;-54
2021/12/20 06:36:56;;;;;;;20.02;5.57;;;;;;;0.81;100.00;98725.50;5076201;28;20040;-55
2021/12/20 06:39:23;;;;;;;36.13;5.90;;;;;;;1.13;100.00;98707.78;5079669;28;20020;-55
2021/12/20 06:41:49;;;;;;;17.55;5.22;;;;;;;1.13;100.00;98717.22;5075431;28;20095;-56
2021/12/20 06:44:15;;;;;;;21.90;5.03;;;;;;;1.05;100.00;98717.16;5078860;28;20020;-55
2021/12/20 06:46:41;;;;;;;35.83;6.07;;;;;;;2.79;100.00;98723.19;5079314;28;20034;-55
2021/12/20 06:49:12;;;;;;;22.10;5.57;;;;;;;1.54;100.00;98729.50;5074545;28;20050;-55
2021/12/20 06:51:41;;;;;;;17.58;5.60;;;;;;;1.07;100.00;98730.03;5080183;27;20043;-56
2021/12/20 06:54:08;;;;;;;15.68;5.03;;;;;;;1.01;100.00;98727.38;5098007;27;20028;-55
2021/12/20 06:56:33;;;;;;;16.15;4.50;;;;;;;0.92;100.00;98726.47;5081065;28;20039;-55
2021/12/20 06:58:59;;;;;;;16.90;4.97;;;;;;;0.95;100.00;98729.03;5080929;28;20032;-55
2021/12/20 07:01:24;;;;;;;15.23;4.88;;;;;;;1.09;100.00;98729.16;5075818;28;20457;-55
2021/12/20 07:03:49;;;;;;;17.23;5.60;;;;;;;1.08;100.00;98726.59;5096619;27;20119;-55
2021/12/20 07:06:15;;;;;;;23.77;5.57;;;;;;;1.22;100.00;98737.84;5084808;28;20039;-56
2021/12/20 07:08:41;;;;;;;21.92;7.28;;;;;;;1.29;100.00;98741.34;5085000;28;20032;-55
2021/12/20 07:11:08;;;;;;;24.17;7.60;;;;;;;1.37;100.00;98734.53;5078875;28;20040;-55
2021/12/20 07:13:33;;;;;;;24.48;9.52;;;;;;;1.49;100.00;98741.47;5076575;27;20121;-55
2021/12/20 07:15:59;;;;;;;25.92;9.77;;;;;;;1.48;100.00;98742.34;5072437;28;20514;-56
2021/12/20 07:18:24;;;;;;;31.63;10.30;;;;;;;1.42;100.00;98737.16;5079056;28;20108;-56
2021/12/20 07:20:49;;;;;;;27.65;8.32;;;;;;;1.27;100.00;98741.31;5082880;28;20053;-55
2021/12/20 07:23:15;;;;;;;23.38;8.65;;;;;;;1.52;100.00;98738.94;5080679;28;20031;-55
2021/12/20 07:25:40;;;;;;;24.38;9.00;;;;;;;0.96;100.00;98735.06;5083264;28;20056;-56
2021/12/20 07:28:06;;;;;;;21.92;7.93;;;;;;;1.14;100.00;98734.38;5081289;28;20070;-56
2021/12/20 07:30:32;;;;;;;19.90;7.20;;;;;;;1.24;100.00;98743.00;5076928;28;20047;-56
2021/12/20 07:32:57;;;;;;;24.35;7.20;;;;;;;1.59;100.00;98748.41;5079361;28;20025;-54
2021/12/20 07:35:23;;;;;;;16.40;6.75;;;;;;;1.53;100.00;98758.66;5076780;28;20036;-55
2021/12/20 07:37:50;;;;;;;23.15;7.50;;;;;;;1.65;100.00;98761.28;5081125;28;20098;-56
2021/12/20 07:40:15;;;;;;;23.90;7.90;;;;;;;1.57;100.00;98752.69;5080637;28;20157;-55
2021/12/20 07:42:41;;;;;;;19.00;7.57;;;;;;;1.34;100.00;98762.78;5096084;27;20041;-56
2021/12/20 07:45:08;;;;;;;20.50;8.35;;;;;;;1.40;100.00;98761.97;5076852;28;20028;-55
2021/12/20 07:47:33;;;;;;;26.88;8.27;;;;;;;1.38;100.00;98768.81;5077461;28;20031;-55
2021/12/20 07:49:59;;;;;;;20.55;7.45;;;;;;;2.17;100.00;98772.75;5084614;28;20020;-55
2021/12/20 07:52:25;;;;;;;22.77;8.40;;;;;;;2.17;100.00;98772.75;5077909;28;20047;-54
2021/12/20 07:54:50;;;;;;;17.08;7.50;;;;;;;1.82;100.00;98773.41;5079968;28;20031;-56
2021/12/20 07:57:15;;;;;;;19.02;7.55;;;;;;;1.77;100.00;98769.97;5080189;28;20545;-55
2021/12/20 07:59:41;;;;;;;20.77;7.25;;;;;;;1.90;100.00;98774.34;5076644;28;20397;-57
2021/12/20 08:02:07;;;;;;;25.92;7.03;;;;;;;1.93;100.00;98769.22;5093472;27;20183;-55
2021/12/20 08:04:33;;;;;;;21.92;7.65;;;;;;;1.68;100.00;98779.34;5079128;28;20032;-54
2021/12/20 08:06:58;;;;;;;19.95;7.82;;;;;;;1.74;100.00;98776.78;5071468;28;20036;-54
2021/12/20 08:09:24;;;;;;;20.25;7.03;;;;;;;1.76;100.00;98781.09;5060232;28;20027;-54
2021/12/20 08:11:49;;;;;;;18.08;7.78;;;;;;;1.58;100.00;98785.28;5080491;28;20089;-54
2021/12/20 08:14:14;;;;;;;15.57;6.80;;;;;;;1.67;100.00;98782.78;5082774;28;20024;-56
2021/12/20 08:16:40;;;;;;;18.63;7.70;;;;;;;1.79;100.00;98786.28;5076858;28;20524;-55
2021/12/20 08:19:05;;;;;;;20.30;8.15;;;;;;;1.96;100.00;98779.50;5063708;28;20100;-55
2021/12/20 08:21:30;;;;;;;23.23;10.02;;;;;;;2.67;100.00;98787.56;5076800;28;20560;-55
2021/12/20 08:23:56;;;;;;;27.52;10.43;;;;;;;2.45;100.00;98784.06;5075724;28;20019;-55
2021/12/20 08:26:21;;;;;;;22.65;9.73;;;;;;;2.93;100.00;98781.63;5079904;28;20063;-55
2021/12/20 08:28:47;;;;;;;25.05;10.05;;;;;;;3.09;100.00;98783.38;5075414;28;20034;-55
2021/12/20 08:31:12;;;;;;;24.98;11.23;;;;;;;2.68;100.00;98797.00;5075655;28;20509;-55
2021/12/20 08:33:38;;;;;;;24.17;9.70;;;;;;;2.83;100.00;98788.47;5075585;28;20034;-57
2021/12/20 08:36:09;;;;;;;22.27;9.65;;;;;;;2.83;100.00;98791.03;5081274;28;20041;-55
2021/12/20 08:38:34;;;;;;;27.98;10.55;;;;;;;2.84;100.00;98791.03;5081460;28;20067;-54
2021/12/20 08:41:00;;;;;;;23.40;9.40;;;;;;;2.37;100.00;98784.03;5082034;28;20147;-54
2021/12/20 08:43:27;;;;;;;26.33;9.70;;;;;;;2.30;100.00;98792.56;5079000;28;20537;-56
2021/12/20 08:45:53;;;;;;;25.60;9.40;;;;;;;2.72;100.00;98793.59;5077875;28;20717;-55
2021/12/20 08:48:18;;;;;;;25.05;8.45;;;;;;;2.79;100.00;98795.31;5076293;28;20031;-54
2021/12/20 08:50:44;;;;;;;23.23;8.55;;;;;;;2.79;100.00;98795.31;5078245;28;20055;-55
2021/12/20 08:53:10;;;;;;;24.48;8.32;;;;;;;2.96;100.00;98797.97;5073815;28;20439;-56
2021/12/20 08:55:37;;;;;;;21.83;9.45;;;;;;;3.09;100.00;98804.00;5080627;28;20043;-57
2021/12/20 08:58:03;;;;;;;29.35;9.10;;;;;;;3.11;100.00;98807.44;5078061;28;20456;-54
2021/12/20 09:00:32;;;;;;;21.23;7.45;;;;;;;3.36;100.00;98799.72;5075646;28;20041;-56
2021/12/20 09:02:58;;;;;;;19.42;7.47;;;;;;;3.49;100.00;98806.59;5076307;28;20028;-55
2021/12/20 09:05:26;;;;;;;18.80;6.55;;;;;;;3.14;100.00;98807.44;5070376;28;20414;-55
2021/12/20 09:07:52;;;;;;;14.48;5.40;;;;;;;3.28;100.00;98808.31;5076625;28;20021;-56
2021/12/20 09:10:18;;;;;;;17.15;5.22;;;;;;;3.42;100.00;98808.34;5072482;28;20024;-56
2021/12/20 09:12:45;;;;;;;17.55;5.07;;;;;;;3.39;100.00;98810.06;5074286;28;20532;-55
2021/12/20 09:15:17;;;;;;;18.92;5.20;;;;;;;3.34;100.00;98804.88;5075730;28;20055;-57
2021/12/20 09:17:43;;;;;;;;;;;;;;;3.32;100.00;98806.59;5074963;28;20027;-54
2021/12/20 09:20:10;;;;;;;17.10;5.18;;;;;;;3.10;100.00;98816.03;5078827;28;20091;-54
2021/12/20 09:22:48;;;;;;;17.48;4.88;;;;;;;3.12;100.00;98819.47;5057954;28;20080;-56
2021/12/20 09:25:13;;;;;;;15.60;4.30;;;;;;;3.20;100.00;98822.94;5084681;28;20036;-58
2021/12/20 09:27:39;;;;;;;14.45;4.68;;;;;;;3.39;100.00;98821.22;5080053;28;20028;-54
2021/12/20 09:30:04;;;;;;;15.68;5.22;;;;;;;3.52;100.00;98828.97;5080348;28;20124;-56
2021/12/20 09:32:30;;;;;;;17.98;4.38;;;;;;;3.48;100.00;98822.97;5084740;28;20093;-55
2021/12/20 09:34:55;;;;;;;14.02;4.20;;;;;;;3.47;100.00;98818.66;5077014;28;20062;-55
2021/12/20 09:37:20;;;;;;;14.30;4.70;;;;;;;3.45;100.00;98822.94;5078098;28;20059;-55
2021/12/20 09:39:50;;;;;;;12.10;4.47;;;;;;;3.33;100.00;98828.97;5078715;28;20735;-56
2021/12/20 09:42:15;;;;;;;12.65;4.45;;;;;;;3.52;100.00;98823.81;5075411;28;20039;-54
2021/12/20 09:44:44;;;;;;;16.05;4.70;;;;;;;3.64;100.00;98824.69;5082247;28;20088;-54
2021/12/20 09:47:09;;;;;;;13.27;3.50;;;;;;;3.73;100.00;98822.94;5077107;28;20097;-54
2021/12/20 09:49:35;;;;;;;12.82;3.63;;;;;;;4.05;100.00;98812.59;5082437;28;20023;-55
2021/12/20 09:52:01;;;;;;;14.23;3.72;;;;;;;3.90;100.00;98821.22;5082864;28;20069;-55
2021/12/20 09:54:28;;;;;;;12.30;3.47;;;;;;;3.81;100.00;98822.09;5087547;28;20059;-54
2021/12/20 09:56:55;;;;;;;12.20;3.38;;;;;;;3.63;96.85;98822.94;5079832;28;20102;-55
2021/12/20 09:59:22;;;;;;;13.55;3.47;;;;;;;4.00;96.26;98833.25;5073688;28;20740;-58
2021/12/20 10:01:49;;;;;;;11.15;3.30;;;;;;;3.78;99.35;98822.09;5076564;28;20306;-55
2021/12/20 10:04:15;;;;;;;11.55;3.20;;;;;;;3.76;98.28;98822.97;5079947;28;20655;-55
2021/12/20 10:06:42;;;;;;;14.40;3.55;;;;;;;3.48;96.00;98822.97;5078883;28;20047;-56
2021/12/20 10:09:13;;;;;;;9.65;2.90;;;;;;;3.90;100.00;98826.41;5075599;28;20651;-55
2021/12/20 10:11:39;;;;;;;11.30;3.13;;;;;;;4.33;92.97;98821.13;5084361;28;20036;-55
2021/12/20 10:14:09;;;;;;;15.55;3.50;;;;;;;4.60;98.18;98821.94;5080602;28;20020;-54
2021/12/20 10:16:36;;;;;;;13.13;3.45;;;;;;;4.29;94.31;98821.16;5098517;27;20046;-57
2021/12/20 10:19:04;;;;;;;14.00;3.33;;;;;;;4.44;92.15;98818.53;5083441;28;20021;-55
2021/12/20 10:21:45;;;;;;;12.13;3.38;;;;;;;4.23;93.82;98822.91;5082274;28;20032;-55
2021/12/20 10:24:28;;;;;;;8.75;2.67;;;;;;;4.15;93.21;98819.44;5081045;28;20633;-57
2021/12/20 10:26:54;;;;;;;12.65;3.30;;;;;;;4.07;92.91;98817.78;5092300;27;20125;-55
2021/12/20 10:29:21;;;;;;;8.90;3.08;;;;;;;4.35;92.00;98823.72;5077421;28;20051;-56
2021/12/20 10:31:47;;;;;;;12.25;3.42;;;;;;;4.36;94.66;98815.97;5078762;28;20047;-56
2021/12/20 10:34:13;;;;;;;15.13;3.63;;;;;;;4.47;100.00;98822.81;5086766;28;20501;-55
2021/12/20 10:36:53;;;;;;;8.93;2.50;;;;;;;4.31;83.71;98824.59;5083034;28;20036;-56
2021/12/20 10:39:46;;;;;;;8.18;3.00;;;;;;;4.94;94.17;98827.78;5078907;28;22033;-56
2021/12/20 10:42:16;;;;;;;12.73;3.33;;;;;;;4.60;100.00;98824.50;5076300;28;20119;-55
2021/12/20 10:44:41;;;;;;;11.32;3.58;;;;;;;5.47;100.00;98815.41;5078637;28;20112;-54
2021/12/20 10:47:07;;;;;;;13.77;3.17;;;;;;;4.88;97.16;98811.47;5081570;28;20040;-56
2021/12/20 10:49:32;;;;;;;9.32;2.75;;;;;;;4.74;95.36;98817.56;5077760;28;20028;-55
2021/12/20 10:51:59;;;;;;;12.68;2.88;;;;;;;4.60;83.43;98812.44;5078736;28;20119;-56
2021/12/20 10:54:30;;;;;;;10.98;3.58;;;;;;;5.44;95.92;98818.03;5073975;28;20150;-57
2021/12/20 10:57:01;;;;;;;6.25;2.58;;;;;;;5.26;83.84;98805.22;5076245;28;20084;-56
2021/12/20 10:59:28;;;;;;;8.55;2.55;;;;;;;5.01;89.57;98805.34;5078623;28;20036;-55
2021/12/20 11:04:52;;;;;;;9.32;3.08;;;;;;;5.41;83.68;98808.53;5080590;28;20801;-56
2021/12/20 11:09:50;;;;;;;9.68;2.95;;;;;;;4.86;89.19;98810.63;5083139;28;20016;-56
2021/12/20 11:12:24;;;;;;;7.53;2.75;;;;;;;5.52;83.40;98813.63;5078507;28;20080;-56
2021/12/20 11:14:54;;;;;;;8.55;2.67;;;;;;;5.35;82.00;98808.59;5076852;28;20034;-57
2021/12/20 11:17:21;;;;;;;8.90;3.55;;;;;;;5.93;97.61;98804.66;5073831;28;20033;-53
2021/12/20 11:19:49;;;;;;;12.25;4.00;;;;;;;6.19;100.00;98806.16;5079407;28;20036;-53
2021/12/20 11:22:31;;;;;;;9.52;3.15;;;;;;;6.33;89.43;98804.28;5073566;28;20134;-55
2021/12/20 11:25:06;;;;;;;12.48;4.13;;;;;;;7.45;100.00;98804.53;5079064;28;20050;-55
2021/12/20 11:27:34;;;;;;;6.47;2.28;;;;;;;5.89;78.74;98795.19;5082070;28;20032;-55
2021/12/20 11:30:03;;;;;;;7.03;2.85;;;;;;;5.93;95.18;98798.63;5081859;28;20704;-56
2021/12/20 11:32:30;;;;;;;7.25;2.30;;;;;;;4.99;75.57;98792.44;5079800;28;20039;-53
2021/12/20 11:34:55;;;;;;;6.38;2.28;;;;;;;4.95;69.96;98795.06;5079694;28;20033;-55
2021/12/20 11:37:24;;;;;;;5.60;2.20;;;;;;;5.10;73.30;98797.53;5078675;28;20043;-55
2021/12/20 11:39:51;;;;;;;8.95;3.20;;;;;;;5.57;96.35;98793.75;5074481;28;20040;-55